Galway, Ireland

5:21 PM IST on August 24, 2016 (GMT +0100)
Marine Institute | | Change Station

Elev 59 ft 53.25 °N, 8.98 °W | Updated 1 minute ago

Scattered Clouds
Scattered Clouds
64.7 °F
Feels Like 64.7 °F
N
11.0
Wind Variable Wind from West
Gusts 19.0 mph

Today
High -- | Low -- °F
--% Chance of Precip.
Yesterday
High -- | Low -- °F
Precip. -- in
Pressure 30.12 in
Visibility 6.2 miles
Clouds Few 2500 ft
Scattered Clouds 20000 ft
Dew Point 54 °F
Humidity 67%
Rainfall 0.00 in
Snow Depth Not available.
6:32 AM 8:42 PM
Waning Gibbous, 55% visible
METAR EINN 241600Z 21003KT 9999 FEW025 SCT200 19/11 Q1020 NOSIG
Pressure 30.12 in
Visibility 6.2 miles
Clouds Few 2500 ft
Scattered Clouds 20000 ft
Dew Point 54 °F
Humidity 67%
Rainfall 0.00 in
Snow Depth Not available.
6:32 AM 8:42 PM
Waning Gibbous, 55% visible
METAR EINN 241600Z 21003KT 9999 FEW025 SCT200 19/11 Q1020 NOSIG

10-Day Weather Forecast

×

Almanac

Astronomy

Aug. 24, 2016 Rise Set
Actual Time
Civil Twilight
Nautical Twilight
Astronomical Twilight
Moon
Length of Visible Light
Length of Day
Tomorrow will be .
, % of the Moon is Illuminated

Today's Extremes

Country Highs Country Lows

Community

WunderPhotos

Upload Photos

1,934,649 photos uploaded!

WunderBlog® & News

Nearby

Air Quality

  Air Quality AQ Index Pollutant
Not available.

Snow Depth

Station Depth Elevation

Earthquake Activity

City Distance Mag. Time & Date
Minimum magnitude displayed is 2.5.

Coastal Water Temperatures

Place Temperature

Stations

Nearby Weather Stations

Station Location Temp. Windchill Dew Point Humidity Wind Precip. Elev Updated Type